Time;durP1;ratioP1;P1;durP2;ratioP2;P2;SDS_P1;SDS_P2;PMS_P1;PMS_P2;Temp;Humidity;BMP_temperature;BMP_pressure;BME280_temperature;BME280_humidity;BME280_pressure;Samples;Min_cycle;Max_cycle;Signal;HPM_P1;HPM_P2
2024/03/10 00:02:28;;;;;;;2.42;1.70;;;;;;;;;;6090631;23;20029;-88
2024/03/10 00:04:55;;;;;;;3.22;1.45;;;;;;;;;;6089286;23;20025;-89
2024/03/10 00:07:23;;;;;;;2.13;1.30;;;;;;;;;;6089192;23;20023;-89
2024/03/10 00:09:57;;;;;;;2.10;1.23;;;;;;;;;;6088734;23;20082;-88
2024/03/10 00:12:24;;;;;;;3.55;1.77;;;;;;;;;;6088386;23;20029;-87
2024/03/10 00:15:05;;;;;;;1.95;1.48;;;;;;;;;;6099402;23;20032;-62
2024/03/10 00:17:32;;;;;;;3.28;1.67;;;;;;;;;;6116776;23;20037;-62
2024/03/10 00:20:26;;;;;;;3.67;1.92;;;;;;;;;;6116120;23;20033;-62
2024/03/10 00:23:21;;;;;;;2.25;1.58;;;;;;;;;;6115719;23;20436;-62
2024/03/10 00:26:09;;;;;;;5.60;2.17;;;;;;;;;;6117019;23;20040;-63
2024/03/10 00:29:01;;;;;;;2.10;1.30;;;;;;;;;;6116524;23;20085;-63
2024/03/10 00:31:49;;;;;;;3.97;1.58;;;;;;;;;;6117991;23;20049;-63
2024/03/10 00:34:43;;;;;;;3.15;2.30;;;;;;;;;;6117625;23;20053;-49
2024/03/10 00:37:29;;;;;;;3.63;1.92;;;;;;;;;;6117712;23;20477;-49
2024/03/10 00:40:23;;;;;;;3.33;1.98;;;;;;;;;;6116173;23;20026;-48
2024/03/10 00:43:17;;;;;;;1.10;1.00;;;;;;;;;;6116969;23;20120;-48
2024/03/10 00:46:11;;;;;;;2.63;1.75;;;;;;;;;;6116804;23;20030;-47
2024/03/10 00:48:59;;;;;;;5.95;1.80;;;;;;;;;;6115553;23;20609;-49
2024/03/10 00:51:52;;;;;;;2.45;1.70;;;;;;;;;;6115230;23;20495;-47
2024/03/10 00:54:40;;;;;;;5.13;1.80;;;;;;;;;;6116043;23;20405;-52
2024/03/10 00:57:33;;;;;;;2.28;1.60;;;;;;;;;;6115578;23;20483;-48
2024/03/10 01:00:20;;;;;;;2.92;1.80;;;;;;;;;;6115953;23;20025;-63
2024/03/10 01:03:15;;;;;;;3.17;1.67;;;;;;;;;;6083139;23;20030;-64
2024/03/10 01:06:08;;;;;;;5.53;1.85;;;;;;;;;;6080118;23;20022;-63
2024/03/10 01:08:56;;;;;;;4.63;1.80;;;;;;;;;;6081966;23;20030;-63
2024/03/10 01:11:51;;;;;;;2.90;1.80;;;;;;;;;;6082894;23;20852;-63
2024/03/10 01:14:44;;;;;;;3.75;1.90;;;;;;;;;;6079937;23;20124;-63
2024/03/10 01:17:37;;;;;;;4.10;1.80;;;;;;;;;;6083948;23;20023;-62
2024/03/10 01:20:26;;;;;;;5.68;2.08;;;;;;;;;;6083260;23;20061;-63
2024/03/10 01:23:19;;;;;;;2.78;2.05;;;;;;;;;;6083963;23;20026;-62
2024/03/10 01:26:06;;;;;;;7.18;2.08;;;;;;;;;;6085531;23;20105;-60
2024/03/10 01:28:59;;;;;;;4.68;2.17;;;;;;;;;;6084429;23;20022;-63
2024/03/10 01:31:47;;;;;;;1.90;1.25;;;;;;;;;;6084705;23;20307;-63
2024/03/10 01:34:40;;;;;;;2.55;1.70;;;;;;;;;;6106314;23;20032;-63
2024/03/10 01:37:28;;;;;;;5.00;1.77;;;;;;;;;;6116426;23;20463;-63
2024/03/10 01:40:21;;;;;;;2.63;1.40;;;;;;;;;;6115927;23;20245;-63
2024/03/10 01:43:08;;;;;;;2.67;1.80;;;;;;;;;;6115491;23;20033;-63
2024/03/10 01:46:07;;;;;;;5.28;1.85;;;;;;;;;;6116868;23;20018;-61
2024/03/10 01:48:54;;;;;;;4.57;2.15;;;;;;;;;;6115535;23;20023;-60
2024/03/10 01:51:48;;;;;;;2.53;1.80;;;;;;;;;;6115885;23;20033;-61
2024/03/10 01:54:37;;;;;;;2.65;1.60;;;;;;;;;;6113389;23;20034;-48
2024/03/10 01:57:30;;;;;;;3.20;2.03;;;;;;;;;;6110000;23;20030;-49
2024/03/10 02:00:19;;;;;;;3.00;1.90;;;;;;;;;;6117522;23;20427;-51
2024/03/10 02:03:10;;;;;;;5.00;2.05;;;;;;;;;;6118227;23;20032;-52
2024/03/10 02:06:09;;;;;;;6.47;1.90;;;;;;;;;;6114576;23;20045;-50
2024/03/10 02:08:58;;;;;;;3.35;2.33;;;;;;;;;;6116423;23;20025;-52
2024/03/10 02:11:53;;;;;;;5.55;2.10;;;;;;;;;;6117734;23;20022;-52
2024/03/10 02:15:00;;;;;;;3.55;2.25;;;;;;;;;;6116402;23;20018;-61
2024/03/10 02:17:59;;;;;;;4.80;2.10;;;;;;;;;;6116843;23;20022;-60
2024/03/10 02:20:47;;;;;;;5.68;2.42;;;;;;;;;;6115708;23;20498;-61
2024/03/10 02:23:47;;;;;;;3.35;1.95;;;;;;;;;;6117672;23;20344;-55
2024/03/10 02:26:37;;;;;;;3.03;2.00;;;;;;;;;;6116166;23;20026;-64
2024/03/10 02:29:31;;;;;;;7.68;2.88;;;;;;;;;;6117589;23;20026;-63
2024/03/10 02:49:14;;;;;;;4.55;2.15;;;;;;;;;;6117463;23;20037;-49
2024/03/10 02:52:08;;;;;;;2.63;1.75;;;;;;;;;;6118251;23;20084;-63
2024/03/10 02:54:56;;;;;;;4.32;1.60;;;;;;;;;;6114978;23;20030;-63
2024/03/10 02:57:48;;;;;;;2.47;1.55;;;;;;;;;;6116796;23;20077;-63
2024/03/10 03:00:36;;;;;;;4.75;1.60;;;;;;;;;;6117392;23;20022;-64
2024/03/10 03:03:31;;;;;;;2.90;1.85;;;;;;;;;;6115457;23;20344;-63
2024/03/10 03:06:18;;;;;;;2.63;1.73;;;;;;;;;;6114537;23;20478;-63
2024/03/10 03:09:14;;;;;;;3.03;1.60;;;;;;;;;;6116093;23;20026;-55
2024/03/10 03:12:03;;;;;;;3.03;2.03;;;;;;;;;;6116088;23;20377;-62
2024/03/10 03:15:09;;;;;;;3.25;2.05;;;;;;;;;;6116535;23;20030;-62
2024/03/10 03:18:02;;;;;;;3.65;2.28;;;;;;;;;;6116204;23;20032;-62
2024/03/10 03:20:57;;;;;;;8.60;1.52;;;;;;;;;;6117007;23;20468;-48
2024/03/10 03:23:44;;;;;;;3.27;1.80;;;;;;;;;;6116596;23;20056;-51
2024/03/10 03:26:38;;;;;;;3.78;2.15;;;;;;;;;;6116987;23;20045;-50
2024/03/10 03:29:26;;;;;;;2.95;2.20;;;;;;;;;;6117585;23;20025;-49
2024/03/10 03:32:19;;;;;;;11.00;2.50;;;;;;;;;;6119022;23;20026;-50
2024/03/10 03:35:07;;;;;;;4.22;2.30;;;;;;;;;;6117397;23;20100;-49
2024/03/10 03:38:03;;;;;;;4.43;2.10;;;;;;;;;;6118624;23;20026;-63
2024/03/10 03:40:49;;;;;;;4.63;1.67;;;;;;;;;;6113998;23;20053;-63
2024/03/10 03:43:42;;;;;;;2.83;2.33;;;;;;;;;;6117656;23;20379;-63
2024/03/10 03:46:29;;;;;;;3.45;2.10;;;;;;;;;;6117121;23;20024;-63
2024/03/10 03:49:23;;;;;;;3.72;2.28;;;;;;;;;;6116638;23;20565;-63
2024/03/10 03:52:18;;;;;;;2.75;1.75;;;;;;;;;;6117332;23;20425;-53
2024/03/10 03:55:05;;;;;;;6.82;2.28;;;;;;;;;;6115228;23;20484;-52
2024/03/10 03:57:58;;;;;;;6.50;2.20;;;;;;;;;;6116864;23;20025;-50
2024/03/10 04:00:45;;;;;;;1.05;0.88;;;;;;;;;;6115921;23;20022;-49
2024/03/10 04:03:40;;;;;;;3.15;1.95;;;;;;;;;;6115601;23;20018;-50
2024/03/10 04:06:28;;;;;;;6.53;2.30;;;;;;;;;;6116772;23;20026;-47
2024/03/10 04:09:20;;;;;;;4.30;2.00;;;;;;;;;;6115461;23;20025;-48
2024/03/10 04:12:08;;;;;;;3.88;2.40;;;;;;;;;;6114491;23;20268;-47
2024/03/10 04:15:15;;;;;;;5.75;1.83;;;;;;;;;;6115948;23;20488;-50
2024/03/10 04:18:08;;;;;;;15.63;3.05;;;;;;;;;;6116155;23;20029;-63
2024/03/10 04:21:02;;;;;;;4.72;1.90;;;;;;;;;;6116038;23;20025;-51
2024/03/10 04:23:50;;;;;;;1.85;1.42;;;;;;;;;;6116250;23;20676;-52
2024/03/10 04:26:44;;;;;;;4.53;2.00;;;;;;;;;;6115268;23;20033;-52
2024/03/10 04:29:31;;;;;;;2.33;1.60;;;;;;;;;;6118232;23;20025;-53
2024/03/10 04:32:25;;;;;;;3.42;1.77;;;;;;;;;;6117709;23;20037;-50
2024/03/10 04:35:13;;;;;;;3.33;1.70;;;;;;;;;;6117573;23;20022;-50
2024/03/10 04:38:06;;;;;;;3.50;1.73;;;;;;;;;;6116945;23;20364;-52
2024/03/10 04:40:54;;;;;;;4.30;2.10;;;;;;;;;;6116551;23;20492;-51
2024/03/10 04:43:48;;;;;;;3.90;1.77;;;;;;;;;;6117160;23;20053;-50
2024/03/10 04:46:36;;;;;;;1.92;1.10;;;;;;;;;;6116651;23;20633;-60
2024/03/10 04:49:29;;;;;;;7.22;1.45;;;;;;;;;;6114652;23;20125;-50
2024/03/10 04:52:16;;;;;;;2.22;1.80;;;;;;;;;;6116599;23;20025;-48
2024/03/10 04:55:11;;;;;;;2.55;1.30;;;;;;;;;;6115611;23;20401;-48
2024/03/10 04:57:58;;;;;;;3.10;1.65;;;;;;;;;;6116653;23;20025;-48
2024/03/10 05:00:51;;;;;;;3.03;1.63;;;;;;;;;;6115114;23;20499;-47
2024/03/10 05:03:39;;;;;;;5.07;1.60;;;;;;;;;;6115237;23;20022;-61
2024/03/10 05:06:34;;;;;;;1.48;1.30;;;;;;;;;;6115356;23;20022;-61
2024/03/10 05:09:20;;;;;;;1.92;1.30;;;;;;;;;;6114389;23;20711;-60
2024/03/10 05:12:14;;;;;;;3.55;1.60;;;;;;;;;;6116275;23;20136;-63
2024/03/10 05:15:05;;;;;;;2.28;1.50;;;;;;;;;;6113330;23;20761;-62
2024/03/10 05:18:05;;;;;;;3.88;1.48;;;;;;;;;;6116549;23;20022;-64
2024/03/10 05:20:52;;;;;;;1.92;1.25;;;;;;;;;;6116648;23;20022;-63
2024/03/10 05:23:46;;;;;;;2.55;1.23;;;;;;;;;;6117337;23;20033;-63
2024/03/10 05:26:33;;;;;;;8.20;1.40;;;;;;;;;;6115846;23;20468;-64
2024/03/10 05:29:28;;;;;;;3.95;1.50;;;;;;;;;;6116675;23;20058;-63
2024/03/10 05:32:15;;;;;;;2.83;1.20;;;;;;;;;;6117811;23;20026;-63
2024/03/10 05:35:15;;;;;;;1.77;1.30;;;;;;;;;;6117863;23;20176;-63
2024/03/10 05:38:02;;;;;;;2.35;1.45;;;;;;;;;;6118104;23;20033;-63
2024/03/10 05:41:04;;;;;;;1.98;1.30;;;;;;;;;;6118691;23;20056;-63
2024/03/10 05:43:50;;;;;;;1.52;1.20;;;;;;;;;;6117701;23;20053;-62
2024/03/10 05:46:46;;;;;;;4.25;1.63;;;;;;;;;;6117352;23;20345;-63
2024/03/10 05:49:32;;;;;;;2.08;1.30;;;;;;;;;;6113748;23;20030;-64
2024/03/10 05:52:26;;;;;;;1.30;1.20;;;;;;;;;;6117717;23;20029;-62
2024/03/10 05:55:13;;;;;;;2.40;1.40;;;;;;;;;;6116868;23;20061;-63
2024/03/10 05:58:06;;;;;;;3.58;1.30;;;;;;;;;;6117252;23;20022;-63
2024/03/10 06:01:01;;;;;;;2.35;1.58;;;;;;;;;;6117335;23;20026;-61
2024/03/10 06:03:48;;;;;;;1.95;0.75;;;;;;;;;;6118229;23;20022;-59
2024/03/10 06:06:42;;;;;;;2.65;1.30;;;;;;;;;;6118160;23;20329;-61
2024/03/10 06:09:34;;;;;;;2.42;1.25;;;;;;;;;;6116469;23;20057;-61
2024/03/10 06:12:23;;;;;;;4.18;1.25;;;;;;;;;;6118164;23;20030;-56
2024/03/10 06:15:19;;;;;;;2.10;1.20;;;;;;;;;;6116049;23;20185;-48
2024/03/10 06:18:31;;;;;;;2.65;1.90;;;;;;;;;;6116801;23;20581;-52
2024/03/10 06:26:50;;;;;;;2.90;1.60;;;;;;;;;;6119038;23;20026;-48
2024/03/10 06:29:44;;;;;;;0.85;0.65;;;;;;;;;;6119602;23;20098;-61
2024/03/10 06:32:31;;;;;;;1.95;1.35;;;;;;;;;;6117698;23;20449;-61
2024/03/10 06:35:25;;;;;;;2.38;1.33;;;;;;;;;;6116575;23;20030;-62
2024/03/10 06:38:12;;;;;;;2.22;1.70;;;;;;;;;;6118372;23;20026;-61
2024/03/10 06:41:06;;;;;;;2.45;1.33;;;;;;;;;;6117459;23;20022;-63
2024/03/10 06:44:01;;;;;;;4.13;1.50;;;;;;;;;;6117354;23;20476;-63
2024/03/10 06:46:54;;;;;;;2.53;1.10;;;;;;;;;;6116957;23;20026;-63
2024/03/10 06:49:42;;;;;;;2.25;1.40;;;;;;;;;;6115764;23;20028;-63
2024/03/10 06:52:35;;;;;;;5.75;1.35;;;;;;;;;;6117283;23;20053;-62
2024/03/10 06:55:23;;;;;;;2.53;1.50;;;;;;;;;;6116940;23;20025;-63
2024/03/10 06:58:17;;;;;;;2.40;1.45;;;;;;;;;;6117650;23;20544;-60
2024/03/10 07:01:05;;;;;;;4.75;1.23;;;;;;;;;;6115279;23;20085;-60
2024/03/10 07:03:57;;;;;;;3.55;1.40;;;;;;;;;;6116438;23;20076;-60
2024/03/10 07:06:46;;;;;;;2.20;1.10;;;;;;;;;;6117345;23;20480;-60
2024/03/10 07:09:39;;;;;;;3.25;1.40;;;;;;;;;;6115840;23;20033;-48
2024/03/10 07:12:25;;;;;;;1.17;0.82;;;;;;;;;;6116414;23;20033;-62
2024/03/10 07:15:32;;;;;;;1.75;1.17;;;;;;;;;;6114904;23;20456;-62
2024/03/10 07:18:26;;;;;;;1.35;0.82;;;;;;;;;;6116384;23;20025;-62
2024/03/10 07:21:20;;;;;;;2.38;0.98;;;;;;;;;;6117536;23;20041;-62
2024/03/10 07:24:08;;;;;;;4.90;1.50;;;;;;;;;;6118209;23;20022;-62
2024/03/10 07:27:01;;;;;;;0.90;0.77;;;;;;;;;;6117207;23;20435;-61
2024/03/10 07:29:48;;;;;;;1.63;1.15;;;;;;;;;;6117743;23;20069;-60
2024/03/10 07:32:42;;;;;;;3.42;1.00;;;;;;;;;;6118332;23;20022;-61
2024/03/10 07:35:30;;;;;;;2.17;1.40;;;;;;;;;;6117790;23;20026;-52
2024/03/10 07:38:24;;;;;;;2.28;1.50;;;;;;;;;;6117164;23;20456;-49
2024/03/10 07:41:11;;;;;;;2.20;1.30;;;;;;;;;;6117834;23;20058;-53
2024/03/10 07:44:05;;;;;;;2.70;1.23;;;;;;;;;;6115976;23;20032;-51
2024/03/10 07:46:54;;;;;;;2.72;1.40;;;;;;;;;;6115159;23;20024;-52
2024/03/10 07:49:48;;;;;;;2.78;1.33;;;;;;;;;;6115117;23;20018;-50
2024/03/10 07:52:43;;;;;;;3.05;1.27;;;;;;;;;;6116579;23;20032;-51
2024/03/10 07:55:36;;;;;;;3.40;1.10;;;;;;;;;;6117364;23;20029;-60
2024/03/10 07:58:25;;;;;;;3.10;1.38;;;;;;;;;;6114831;23;20297;-61
2024/03/10 08:01:17;;;;;;;2.03;1.38;;;;;;;;;;6112812;23;20622;-60
2024/03/10 08:04:04;;;;;;;2.42;1.70;;;;;;;;;;6113286;23;20061;-63
2024/03/10 08:06:59;;;;;;;3.80;1.35;;;;;;;;;;6112631;23;20073;-65
2024/03/10 08:09:46;;;;;;;4.78;1.50;;;;;;;;;;6115762;23;20855;-60
2024/03/10 08:12:39;;;;;;;1.80;1.33;;;;;;;;;;6113368;23;20026;-60
2024/03/10 08:15:38;;;;;;;2.25;1.63;;;;;;;;;;6115602;23;20053;-61
2024/03/10 08:18:39;;;;;;;2.90;1.50;;;;;;;;;;6114233;23;20051;-60
2024/03/10 08:21:33;;;;;;;1.42;1.13;;;;;;;;;;6115894;23;20251;-60
2024/03/10 08:24:21;;;;;;;2.53;1.08;;;;;;;;;;6119522;23;20080;-63
2024/03/10 08:27:16;;;;;;;2.05;1.50;;;;;;;;;;6117630;23;20026;-62
2024/03/10 08:30:11;;;;;;;2.65;1.80;;;;;;;;;;6117488;23;20040;-63
2024/03/10 08:33:06;;;;;;;2.05;1.30;;;;;;;;;;6117661;23;20034;-63
2024/03/10 08:36:00;;;;;;;0.73;0.73;;;;;;;;;;6115959;23;20038;-63
2024/03/10 08:38:47;;;;;;;1.55;1.02;;;;;;;;;;6116681;23;20396;-62
2024/03/10 08:41:40;;;;;;;5.18;1.42;;;;;;;;;;6116551;23;20025;-62
2024/03/10 08:44:27;;;;;;;5.05;1.90;;;;;;;;;;6116387;23;20333;-63
2024/03/10 08:47:22;;;;;;;2.70;1.50;;;;;;;;;;6114804;23;20085;-63
2024/03/10 08:50:12;;;;;;;1.73;1.20;;;;;;;;;;6116532;23;20413;-63
2024/03/10 08:53:08;;;;;;;2.10;1.60;;;;;;;;;;6115538;23;20025;-60
2024/03/10 08:55:55;;;;;;;4.32;1.75;;;;;;;;;;6112315;23;20029;-61
2024/03/10 08:58:48;;;;;;;2.10;1.67;;;;;;;;;;6115599;23;20428;-60
2024/03/10 09:01:43;;;;;;;3.67;1.48;;;;;;;;;;6108607;23;20028;-62
2024/03/10 09:04:30;;;;;;;3.65;1.58;;;;;;;;;;6115094;23;20025;-63
2024/03/10 09:07:25;;;;;;;4.00;2.03;;;;;;;;;;6114799;23;20018;-63
2024/03/10 09:10:11;;;;;;;4.55;1.50;;;;;;;;;;6114647;23;20026;-64
2024/03/10 09:13:19;;;;;;;2.30;1.50;;;;;;;;;;6115774;23;20018;-64
2024/03/10 09:16:13;;;;;;;2.85;2.10;;;;;;;;;;6115015;23;20029;-64
2024/03/10 09:19:14;;;;;;;2.30;1.55;;;;;;;;;;6115380;23;20030;-63
2024/03/10 09:22:02;;;;;;;4.95;2.00;;;;;;;;;;6115160;23;20598;-59
2024/03/10 09:24:56;;;;;;;4.88;2.00;;;;;;;;;;6116559;23;20342;-61
2024/03/10 09:27:43;;;;;;;3.80;1.80;;;;;;;;;;6112830;23;20024;-59
2024/03/10 09:30:37;;;;;;;1.83;1.20;;;;;;;;;;6116829;23;20034;-61
2024/03/10 09:33:24;;;;;;;3.85;2.13;;;;;;;;;;6117547;23;20030;-62
2024/03/10 09:36:24;;;;;;;3.40;2.17;;;;;;;;;;6117329;23;20033;-62
2024/03/10 09:39:12;;;;;;;2.33;1.77;;;;;;;;;;6114192;23;20231;-62
2024/03/10 09:42:05;;;;;;;2.63;1.70;;;;;;;;;;6116488;23;20117;-62
2024/03/10 09:45:00;;;;;;;3.33;1.77;;;;;;;;;;6114902;23;20879;-62
2024/03/10 09:47:50;;;;;;;6.68;2.22;;;;;;;;;;6116116;23;20100;-49
2024/03/10 09:50:48;;;;;;;2.90;1.83;;;;;;;;;;6114748;23;20077;-51
2024/03/10 09:53:42;;;;;;;4.03;1.63;;;;;;;;;;6116349;23;20030;-49
2024/03/10 09:56:29;;;;;;;4.47;2.28;;;;;;;;;;6115834;23;20081;-52
2024/03/10 09:59:41;;;;;;;2.25;1.90;;;;;;;;;;6114011;23;20022;-47
2024/03/10 10:02:24;;;;;;;6.10;1.85;;;;;;;;;;6112122;23;20404;-62
2024/03/10 10:05:24;;;;;;;2.47;1.52;;;;;;;;;;6114703;23;20100;-62
2024/03/10 10:08:12;;;;;;;4.60;1.77;;;;;;;;;;6115490;23;20022;-62
2024/03/10 10:11:08;;;;;;;2.88;1.67;;;;;;;;;;6113410;23;20033;-62
2024/03/10 10:14:16;;;;;;;5.55;2.00;;;;;;;;;;6112683;23;20060;-63
2024/03/10 10:17:22;;;;;;;3.17;1.63;;;;;;;;;;6112667;23;20460;-59
2024/03/10 10:20:11;;;;;;;4.35;1.67;;;;;;;;;;6113416;23;20026;-60
2024/03/10 10:23:06;;;;;;;2.58;1.88;;;;;;;;;;6117363;23;20053;-61
2024/03/10 10:26:09;;;;;;;3.95;2.10;;;;;;;;;;6115594;23;20022;-60
2024/03/10 10:29:07;;;;;;;3.95;1.80;;;;;;;;;;6117273;23;20356;-61
2024/03/10 10:31:59;;;;;;;2.30;1.52;;;;;;;;;;6115795;23;20026;-60
2024/03/10 10:34:53;;;;;;;2.00;1.58;;;;;;;;;;6115162;23;20464;-60
2024/03/10 10:37:46;;;;;;;3.15;1.95;;;;;;;;;;6117597;23;20863;-63
2024/03/10 10:40:34;;;;;;;3.13;2.00;;;;;;;;;;6117511;23;20097;-51
2024/03/10 10:43:27;;;;;;;3.40;1.73;;;;;;;;;;6113169;23;20341;-54
2024/03/10 10:46:22;;;;;;;2.78;1.90;;;;;;;;;;6114850;23;20034;-51
2024/03/10 10:49:16;;;;;;;3.20;1.80;;;;;;;;;;6117726;23;20416;-50
2024/03/10 10:52:03;;;;;;;3.53;2.03;;;;;;;;;;6117327;23;20067;-52
2024/03/10 10:54:57;;;;;;;4.22;2.30;;;;;;;;;;6117031;23;20030;-62
2024/03/10 10:57:56;;;;;;;5.20;2.10;;;;;;;;;;6117317;23;20391;-62
2024/03/10 11:00:52;;;;;;;2.25;1.30;;;;;;;;;;6116302;23;20416;-62
2024/03/10 11:03:46;;;;;;;4.03;1.90;;;;;;;;;;6116544;23;20506;-62
2024/03/10 11:06:33;;;;;;;4.38;2.58;;;;;;;;;;6115426;23;20097;-59
2024/03/10 11:09:33;;;;;;;2.55;1.50;;;;;;;;;;6116392;23;20040;-58
2024/03/10 11:12:21;;;;;;;4.43;1.75;;;;;;;;;;6116463;23;20028;-58
2024/03/10 11:15:15;;;;;;;2.67;1.60;;;;;;;;;;6116431;23;20022;-60
2024/03/10 11:18:27;;;;;;;4.68;1.90;;;;;;;;;;6117685;23;20089;-61
2024/03/10 11:21:22;;;;;;;2.17;1.70;;;;;;;;;;6117184;23;20026;-61
2024/03/10 11:24:15;;;;;;;5.60;2.25;;;;;;;;;;6116741;23;20364;-60
2024/03/10 11:27:19;;;;;;;3.03;2.10;;;;;;;;;;6116533;23;20022;-64
2024/03/10 11:30:22;;;;;;;3.63;1.83;;;;;;;;;;6116013;23;20097;-64
2024/03/10 11:49:39;;;;;;;2.33;1.90;;;;;;;;;;4826754;27;7298264;-55
2024/03/10 11:52:15;;;;;;;3.50;2.03;;;;;;;;;;5072940;28;20452;-56
2024/03/10 11:54:55;;;;;;;6.90;2.25;;;;;;;;;;5075246;28;20056;-56
2024/03/10 11:57:43;;;;;;;3.42;1.88;;;;;;;;;;5073689;28;20044;-54
2024/03/10 12:00:37;;;;;;;4.40;2.10;;;;;;;;;;5072016;28;20708;-64
2024/03/10 12:03:24;;;;;;;3.58;1.80;;;;;;;;;;5075630;28;20048;-64
2024/03/10 12:06:18;;;;;;;7.53;1.73;;;;;;;;;;5072262;28;20044;-64
2024/03/10 12:09:12;;;;;;;7.18;2.15;;;;;;;;;;5073242;28;20740;-65
2024/03/10 12:12:11;;;;;;;1.92;1.50;;;;;;;;;;5074377;28;20048;-64
2024/03/10 12:15:04;;;;;;;2.67;1.95;;;;;;;;;;5073640;28;20048;-58
2024/03/10 12:17:51;;;;;;;2.80;2.00;;;;;;;;;;5071028;28;20067;-64
2024/03/10 12:20:45;;;;;;;3.60;2.20;;;;;;;;;;5073238;28;20041;-65
2024/03/10 12:23:39;;;;;;;2.83;1.98;;;;;;;;;;5070548;28;20380;-64
2024/03/10 12:26:26;;;;;;;3.30;1.92;;;;;;;;;;5071669;28;20441;-64
2024/03/10 12:29:00;;;;;;;2.85;2.20;;;;;;;;;;5073581;28;20063;-64
2024/03/10 12:31:27;;;;;;;3.00;1.90;;;;;;;;;;5071107;28;20467;-65
2024/03/10 12:33:57;;;;;;;1.58;1.33;;;;;;;;;;5071574;28;20048;-61
2024/03/10 12:36:51;;;;;;;3.35;1.10;;;;;;;;;;5071705;28;20748;-61
2024/03/10 12:39:38;;;;;;;2.47;1.75;;;;;;;;;;5050273;28;20053;-60
2024/03/10 12:42:32;;;;;;;3.40;1.70;;;;;;;;;;5053414;28;20046;-61
2024/03/10 12:45:19;;;;;;;4.50;1.92;;;;;;;;;;5047432;28;21001;-60
2024/03/10 12:48:14;;;;;;;2.50;2.03;;;;;;;;;;5062249;28;20153;-61
2024/03/10 12:51:09;;;;;;;6.85;1.88;;;;;;;;;;5056124;28;20053;-50
2024/03/10 12:54:01;;;;;;;2.70;1.65;;;;;;;;;;5055643;28;20879;-52
2024/03/10 12:56:48;;;;;;;3.03;2.13;;;;;;;;;;5052313;28;20059;-48
2024/03/10 12:59:42;;;;;;;6.80;2.17;;;;;;;;;;5058932;28;20087;-47
2024/03/10 13:02:29;;;;;;;3.25;1.90;;;;;;;;;;5058416;28;20090;-48
2024/03/10 13:05:23;;;;;;;2.33;1.80;;;;;;;;;;5055123;28;20489;-47
2024/03/10 13:08:17;;;;;;;2.30;1.80;;;;;;;;;;5055282;28;20106;-49
2024/03/10 13:11:05;;;;;;;4.22;1.83;;;;;;;;;;5056068;28;20045;-57
2024/03/10 13:13:59;;;;;;;3.83;1.67;;;;;;;;;;5058336;28;20413;-61
2024/03/10 13:16:47;;;;;;;3.30;1.80;;;;;;;;;;5057219;28;20056;-61
2024/03/10 13:19:40;;;;;;;2.92;1.83;;;;;;;;;;5052593;28;20053;-61
2024/03/10 13:22:28;;;;;;;5.25;1.40;;;;;;;;;;5050679;28;20053;-61
2024/03/10 13:25:22;;;;;;;4.13;2.13;;;;;;;;;;5059945;28;20048;-61
2024/03/10 13:28:17;;;;;;;5.85;2.03;;;;;;;;;;5057330;28;20060;-46
2024/03/10 13:31:10;;;;;;;3.42;2.25;;;;;;;;;;5057935;28;21673;-61
2024/03/10 13:33:57;;;;;;;3.55;2.17;;;;;;;;;;5059979;28;20048;-62
2024/03/10 13:36:51;;;;;;;3.58;1.63;;;;;;;;;;5057893;28;20059;-62
2024/03/10 13:39:38;;;;;;;5.35;1.90;;;;;;;;;;5055588;28;20075;-61
2024/03/10 13:42:32;;;;;;;4.70;3.05;;;;;;;;;;5054257;28;20053;-60
2024/03/10 13:45:19;;;;;;;6.10;3.15;;;;;;;;;;5059704;28;20078;-61
2024/03/10 13:48:19;;;;;;;8.43;3.38;;;;;;;;;;5038987;28;20464;-61
2024/03/10 13:51:07;;;;;;;8.45;3.70;;;;;;;;;;5037506;28;20494;-51
2024/03/10 13:54:02;;;;;;;6.97;3.13;;;;;;;;;;5039906;28;20646;-52
2024/03/10 13:56:48;;;;;;;6.75;3.95;;;;;;;;;;5039915;28;20049;-52
2024/03/10 13:59:46;;;;;;;5.65;3.05;;;;;;;;;;5040279;28;20049;-48
2024/03/10 14:02:32;;;;;;;6.55;3.03;;;;;;;;;;5039413;28;20056;-53
2024/03/10 14:05:29;;;;;;;3.72;2.33;;;;;;;;;;5039302;28;20056;-53
2024/03/10 14:08:17;;;;;;;7.30;3.30;;;;;;;;;;5034146;28;20154;-64
2024/03/10 14:11:13;;;;;;;5.93;2.90;;;;;;;;;;5036148;28;20037;-65
2024/03/10 14:13:59;;;;;;;6.82;3.47;;;;;;;;;;5039352;28;20046;-64
2024/03/10 14:16:54;;;;;;;8.75;4.13;;;;;;;;;;5038401;28;20528;-64
2024/03/10 14:19:21;;;;;;;;;;;;;;;;;;5036571;28;20052;-63
2024/03/10 14:21:48;;;;;;;7.32;2.88;;;;;;;;;;5035586;28;20486;-64
2024/03/10 14:24:43;;;;;;;8.52;3.65;;;;;;;;;;5035089;28;20126;-48
2024/03/10 14:27:30;;;;;;;5.45;2.72;;;;;;;;;;5034821;28;20064;-55
2024/03/10 14:30:26;;;;;;;7.57;4.82;;;;;;;;;;5037528;28;20045;-57
2024/03/10 14:33:11;;;;;;;7.13;2.85;;;;;;;;;;5040570;28;20045;-54
2024/03/10 14:36:05;;;;;;;6.18;2.63;;;;;;;;;;5039267;28;20537;-54
2024/03/10 14:38:52;;;;;;;7.38;3.75;;;;;;;;;;5040170;28;22313;-55
2024/03/10 14:41:46;;;;;;;8.85;3.80;;;;;;;;;;5039942;28;20037;-61
2024/03/10 14:44:35;;;;;;;9.82;4.03;;;;;;;;;;5037507;28;20053;-52
2024/03/10 14:47:33;;;;;;;8.15;3.85;;;;;;;;;;5037369;28;20064;-49
2024/03/10 14:50:29;;;;;;;8.68;4.45;;;;;;;;;;5037382;28;20048;-53
2024/03/10 14:53:21;;;;;;;6.13;3.83;;;;;;;;;;5031725;28;20049;-53
2024/03/10 14:56:08;;;;;;;7.40;4.22;;;;;;;;;;5026238;28;20159;-51
2024/03/10 14:58:42;;;;;;;9.40;4.30;;;;;;;;;;5036436;28;20612;-52
2024/03/10 15:01:30;;;;;;;10.52;4.38;;;;;;;;;;5032250;28;20457;-52
2024/03/10 15:04:23;;;;;;;6.22;3.15;;;;;;;;;;5035362;28;20041;-64
2024/03/10 15:07:11;;;;;;;8.30;3.58;;;;;;;;;;5036494;28;20049;-64
2024/03/10 15:10:07;;;;;;;9.00;3.70;;;;;;;;;;5030470;28;20200;-64
2024/03/10 15:12:58;;;;;;;9.45;3.55;;;;;;;;;;5030923;28;20154;-64
2024/03/10 15:15:52;;;;;;;7.38;4.30;;;;;;;;;;5031153;28;20049;-65
2024/03/10 15:18:46;;;;;;;9.98;4.05;;;;;;;;;;5030013;28;20410;-49
2024/03/10 15:21:34;;;;;;;9.52;4.00;;;;;;;;;;5031264;28;20091;-58
2024/03/10 15:24:27;;;;;;;10.35;4.82;;;;;;;;;;5033545;28;20052;-51
2024/03/10 15:27:14;;;;;;;15.57;4.03;;;;;;;;;;5032879;28;20244;-53
2024/03/10 15:30:19;;;;;;;7.53;3.55;;;;;;;;;;5031873;28;20133;-53
2024/03/10 15:33:06;;;;;;;8.27;4.45;;;;;;;;;;5032383;28;20045;-56
2024/03/10 15:36:00;;;;;;;5.63;2.83;;;;;;;;;;5031660;28;20791;-50
2024/03/10 15:38:47;;;;;;;13.10;4.32;;;;;;;;;;5026588;28;20049;-65
2024/03/10 15:41:41;;;;;;;5.03;3.45;;;;;;;;;;5052508;28;20145;-64
2024/03/10 15:44:14;;;;;;;14.68;4.43;;;;;;;;;;5048607;28;20777;-64
2024/03/10 15:47:06;;;;;;;9.15;3.85;;;;;;;;;;5048062;28;20056;-65
2024/03/10 15:50:02;;;;;;;9.23;4.35;;;;;;;;;;5025613;28;20066;-64
2024/03/10 15:52:56;;;;;;;7.80;5.07;;;;;;;;;;5029767;28;20882;-64
2024/03/10 15:55:43;;;;;;;7.97;4.03;;;;;;;;;;5028247;28;20506;-47
2024/03/10 15:58:38;;;;;;;7.68;3.85;;;;;;;;;;5032561;28;20050;-62
2024/03/10 16:01:24;;;;;;;7.78;4.40;;;;;;;;;;5030323;28;20045;-60
2024/03/10 16:04:18;;;;;;;8.75;4.50;;;;;;;;;;5024105;28;20049;-60
2024/03/10 16:07:06;;;;;;;11.70;4.10;;;;;;;;;;5026752;28;20053;-60
2024/03/10 16:09:40;;;;;;;7.40;3.00;;;;;;;;;;5028531;28;20211;-60
2024/03/10 16:12:08;;;;;;;7.25;4.40;;;;;;;;;;5028612;28;20505;-61
2024/03/10 16:14:36;;;;;;;5.45;3.08;;;;;;;;;;5024715;28;20361;-56
2024/03/10 16:17:17;;;;;;;7.75;4.57;;;;;;;;;;5024770;28;20637;-52
2024/03/10 16:20:20;;;;;;;8.73;3.85;;;;;;;;;;5022443;28;20049;-50
2024/03/10 16:23:11;;;;;;;9.65;4.28;;;;;;;;;;5016978;28;20408;-50
2024/03/10 16:26:06;;;;;;;7.85;4.22;;;;;;;;;;5032966;28;20583;-45
2024/03/10 16:28:53;;;;;;;8.57;3.72;;;;;;;;;;5048837;28;20722;-57
2024/03/10 16:31:47;;;;;;;7.05;3.85;;;;;;;;;;5038392;28;20603;-48
2024/03/10 16:34:33;;;;;;;8.18;4.15;;;;;;;;;;5047227;28;20213;-51
2024/03/10 16:37:27;;;;;;;7.25;4.00;;;;;;;;;;5051850;28;20037;-49
2024/03/10 16:40:22;;;;;;;7.10;3.80;;;;;;;;;;5049041;28;20056;-48
2024/03/10 16:43:16;;;;;;;7.55;4.28;;;;;;;;;;5048098;28;20489;-50
2024/03/10 16:46:03;;;;;;;6.55;3.90;;;;;;;;;;5047934;28;20044;-47
2024/03/10 16:49:03;;;;;;;7.88;4.30;;;;;;;;;;5029652;28;20085;-51
2024/03/10 16:51:50;;;;;;;5.75;3.30;;;;;;;;;;5011533;28;20103;-62
2024/03/10 16:54:44;;;;;;;9.32;3.97;;;;;;;;;;5013519;28;20107;-49
2024/03/10 16:57:31;;;;;;;10.90;4.28;;;;;;;;;;5011016;28;20077;-46
2024/03/10 17:00:29;;;;;;;7.25;2.63;;;;;;;;;;5013230;28;20037;-45
2024/03/10 17:03:14;;;;;;;9.40;3.83;;;;;;;;;;5010054;28;20065;-46
2024/03/10 17:06:06;;;;;;;7.38;3.63;;;;;;;;;;5011639;28;20053;-48
2024/03/10 17:08:53;;;;;;;6.45;3.28;;;;;;;;;;5008753;28;20057;-60
2024/03/10 17:11:47;;;;;;;9.32;4.15;;;;;;;;;;5011566;28;20176;-62
2024/03/10 17:14:41;;;;;;;8.85;4.68;;;;;;;;;;5016395;28;20088;-63
2024/03/10 17:17:28;;;;;;;11.43;4.53;;;;;;;;;;5011856;28;20053;-62
2024/03/10 17:20:23;;;;;;;8.02;3.95;;;;;;;;;;5007529;28;20457;-62
2024/03/10 17:23:12;;;;;;;8.50;3.95;;;;;;;;;;5008611;28;20565;-62
2024/03/10 17:26:03;;;;;;;10.77;3.85;;;;;;;;;;5007893;28;20042;-51
2024/03/10 17:28:50;;;;;;;8.18;4.35;;;;;;;;;;5013367;28;20054;-61
2024/03/10 17:31:45;;;;;;;7.55;3.88;;;;;;;;;;5009605;28;20057;-61
2024/03/10 17:34:32;;;;;;;7.38;4.10;;;;;;;;;;5008062;28;20064;-61
2024/03/10 17:37:26;;;;;;;10.60;4.28;;;;;;;;;;5011125;28;20940;-61
2024/03/10 17:40:24;;;;;;;7.43;4.03;;;;;;;;;;5005077;28;20495;-61
2024/03/10 17:43:08;;;;;;;6.25;3.60;;;;;;;;;;5013720;28;20099;-61
2024/03/10 17:46:05;;;;;;;9.20;3.97;;;;;;;;;;5011409;28;20116;-61